Norcatur, KS (67653)

3:35 AM CST on December 05, 2016 (GMT -0600)
HADS | | Change Station

Elev 2350 ft 39.77 °N, 100.10 °W | Updated 50 minutes ago

Clear
Clear
35.0 °F
Feels Like 35.0 °F
N
0.0
Wind Variable Wind from North
Gusts 0.0 mph

Today
High -- | Low -- °F
--% Chance of Precip.
Yesterday
High -- | Low -- °F
Precip. -- in
Pressure 29.72 in
Visibility 10.0 miles
Clouds Clear
Dew Point Not available.
Humidity Not available.
Rainfall in
Snow Depth Not available.
7:47 AM 5:15 PM
Waxing Crescent, 30% visible
METAR KMCK 050853Z AUTO 21005KT 10SM CLR 01/M07 A2970 RMK AO2 SLP064 T00111067 56017
Pressure 29.72 in
Visibility 10.0 miles
Clouds Clear
Dew Point Not available.
Humidity Not available.
Rainfall in
Snow Depth Not available.
7:47 AM 5:15 PM
Waxing Crescent, 30% visible
METAR KMCK 050853Z AUTO 21005KT 10SM CLR 01/M07 A2970 RMK AO2 SLP064 T00111067 56017

10-Day Weather Forecast

Almanac

Astronomy

Dec. 05, 2016 Rise Set
Actual Time
Civil Twilight
Nautical Twilight
Astronomical Twilight
Moon
Length of Visible Light
Length of Day
Tomorrow will be .
, % of the Moon is Illuminated

Today's Extremes

State Highs State Lows

Community

WunderPhotos

Upload Photos

1,955,775 photos uploaded!

WunderBlog® & News

Nearby

Air Quality

  Air Quality AQ Index Pollutant
Not available.

Snow Depth

Station Depth Elevation

Earthquake Activity

City Distance Mag. Time & Date
Minimum magnitude displayed is 2.5.

Coastal Water Temperatures

Place Temperature

Stations

Nearby Weather Stations

Station Location Temp. Windchill Dew Point Humidity Wind Precip. Elev Updated Type
                   

Watches & Warnings

There are currently no watches in effect.